ESGR/KVB METAR and TAF weather

Enter ICAO airport designator
Station Type Date Time Source
ESGR METAR 2020/04/06 17:20 UTC NOAA

ESGR 061720Z AUTO 18007KT 9999 NCD 15/M01 Q1019


Station Type Date Time Source
ESGR Decoded METAR 2020/04/06 17:20 UTC NOAA

Skovde Flygplats, Sweden (ESGR) 58-27N 013-58E 105M
Apr 06, 2020 - 01:20 PM EDT / 2020.04.06 1720 UTC
Wind: from the S (180 degrees) at 8 MPH (7 KT):0
Visibility: greater than 7 mile(s):0
Temperature: 59 F (15 C)
Dew Point: 30 F (-1 C)
Relative Humidity: 33%
Pressure (altimeter): 30.09 in. Hg (1019 hPa)
ob: ESGR 061720Z AUTO 18007KT 9999 NCD 15/M01 Q1019
cycle: 17

Station Type Date Time Source
ESGR TAF 2009/06/28 04:50 UTC NOAA

METAR ESGR 280450Z AUTO VRB02KT 9999NDV NCD 17/12 Q1020

Example: see airport list